sensor_id;sensor_type;location;lat;lon;timestamp;P1;durP1;ratioP1;P2;durP2;ratioP2
22441;SDS011;11388;54.456;9.752;2023-12-14T00:00:11;7.75;;;5.07;;
22441;SDS011;11388;54.456;9.752;2023-12-14T00:03:15;6.78;;;4.40;;
22441;SDS011;11388;54.456;9.752;2023-12-14T00:05:47;6.68;;;4.53;;
22441;SDS011;11388;54.456;9.752;2023-12-14T00:08:21;6.88;;;5.00;;
22441;SDS011;11388;54.456;9.752;2023-12-14T00:44:26;6.47;;;4.60;;
22441;SDS011;11388;54.456;9.752;2023-12-14T00:53:40;5.47;;;4.22;;
22441;SDS011;11388;54.456;9.752;2023-12-14T00:56:14;6.97;;;4.78;;
22441;SDS011;11388;54.456;9.752;2023-12-14T00:58:47;6.82;;;4.60;;
22441;SDS011;11388;54.456;9.752;2023-12-14T01:01:34;6.50;;;4.53;;
22441;SDS011;11388;54.456;9.752;2023-12-14T01:04:12;6.88;;;4.55;;
22441;SDS011;11388;54.456;9.752;2023-12-14T01:10:29;7.85;;;4.75;;
22441;SDS011;11388;54.456;9.752;2023-12-14T01:13:21;7.90;;;4.93;;
22441;SDS011;11388;54.456;9.752;2023-12-14T01:15:55;6.53;;;4.32;;
22441;SDS011;11388;54.456;9.752;2023-12-14T01:18:27;6.63;;;4.55;;
22441;SDS011;11388;54.456;9.752;2023-12-14T01:21:27;7.07;;;4.60;;
22441;SDS011;11388;54.456;9.752;2023-12-14T01:27:43;7.00;;;4.38;;
22441;SDS011;11388;54.456;9.752;2023-12-14T01:30:29;7.20;;;4.18;;
22441;SDS011;11388;54.456;9.752;2023-12-14T01:50:01;6.80;;;3.83;;
22441;SDS011;11388;54.456;9.752;2023-12-14T01:52:48;5.55;;;3.53;;
22441;SDS011;11388;54.456;9.752;2023-12-14T01:55:45;6.25;;;3.90;;
22441;SDS011;11388;54.456;9.752;2023-12-14T02:05:32;5.60;;;4.10;;
22441;SDS011;11388;54.456;9.752;2023-12-14T02:12:13;4.65;;;3.30;;
22441;SDS011;11388;54.456;9.752;2023-12-14T02:22:01;5.85;;;3.33;;
22441;SDS011;11388;54.456;9.752;2023-12-14T02:27:51;7.00;;;3.60;;
22441;SDS011;11388;54.456;9.752;2023-12-14T02:30:36;5.85;;;3.90;;
22441;SDS011;11388;54.456;9.752;2023-12-14T02:36:33;5.30;;;3.22;;
22441;SDS011;11388;54.456;9.752;2023-12-14T02:39:11;5.65;;;3.33;;
22441;SDS011;11388;54.456;9.752;2023-12-14T02:55:21;6.30;;;3.55;;
22441;SDS011;11388;54.456;9.752;2023-12-14T02:58:23;4.90;;;3.35;;
22441;SDS011;11388;54.456;9.752;2023-12-14T03:00:51;4.75;;;2.90;;
22441;SDS011;11388;54.456;9.752;2023-12-14T03:04:15;5.65;;;3.25;;
22441;SDS011;11388;54.456;9.752;2023-12-14T03:10:36;3.97;;;3.10;;
22441;SDS011;11388;54.456;9.752;2023-12-14T03:34:26;5.10;;;2.90;;
22441;SDS011;11388;54.456;9.752;2023-12-14T03:36:57;3.80;;;2.80;;
22441;SDS011;11388;54.456;9.752;2023-12-14T07:32:21;5.03;;;3.50;;
22441;SDS011;11388;54.456;9.752;2023-12-14T07:34:54;5.00;;;3.22;;
22441;SDS011;11388;54.456;9.752;2023-12-14T07:37:23;4.68;;;3.30;;
22441;SDS011;11388;54.456;9.752;2023-12-14T07:39:52;5.68;;;3.83;;
22441;SDS011;11388;54.456;9.752;2023-12-14T07:42:25;5.72;;;3.70;;
22441;SDS011;11388;54.456;9.752;2023-12-14T08:00:53;4.97;;;3.60;;
22441;SDS011;11388;54.456;9.752;2023-12-14T08:03:33;6.03;;;2.90;;
22441;SDS011;11388;54.456;9.752;2023-12-14T08:06:00;6.72;;;3.17;;
22441;SDS011;11388;54.456;9.752;2023-12-14T08:08:28;6.63;;;3.65;;
22441;SDS011;11388;54.456;9.752;2023-12-14T08:11:00;6.00;;;3.53;;
22441;SDS011;11388;54.456;9.752;2023-12-14T08:13:32;3.30;;;2.80;;
22441;SDS011;11388;54.456;9.752;2023-12-14T08:19:03;5.07;;;3.20;;
22441;SDS011;11388;54.456;9.752;2023-12-14T08:40:41;5.05;;;3.60;;
22441;SDS011;11388;54.456;9.752;2023-12-14T08:43:12;5.78;;;3.33;;
22441;SDS011;11388;54.456;9.752;2023-12-14T08:46:16;5.43;;;3.13;;
22441;SDS011;11388;54.456;9.752;2023-12-14T08:48:51;3.95;;;3.10;;
22441;SDS011;11388;54.456;9.752;2023-12-14T08:51:30;4.60;;;2.85;;
22441;SDS011;11388;54.456;9.752;2023-12-14T08:54:02;4.10;;;2.83;;
22441;SDS011;11388;54.456;9.752;2023-12-14T08:56:27;5.15;;;2.90;;
22441;SDS011;11388;54.456;9.752;2023-12-14T09:02:11;6.90;;;3.60;;
22441;SDS011;11388;54.456;9.752;2023-12-14T09:04:36;5.35;;;2.90;;
22441;SDS011;11388;54.456;9.752;2023-12-14T09:07:02;3.65;;;2.70;;
22441;SDS011;11388;54.456;9.752;2023-12-14T10:07:16;4.30;;;2.35;;
22441;SDS011;11388;54.456;9.752;2023-12-14T10:09:52;5.97;;;4.47;;
22441;SDS011;11388;54.456;9.752;2023-12-14T10:26:20;3.35;;;2.42;;
22441;SDS011;11388;54.456;9.752;2023-12-14T10:32:37;3.78;;;2.13;;
22441;SDS011;11388;54.456;9.752;2023-12-14T10:38:25;3.42;;;2.20;;
22441;SDS011;11388;54.456;9.752;2023-12-14T10:40:54;3.40;;;2.38;;
22441;SDS011;11388;54.456;9.752;2023-12-14T10:48:25;3.55;;;2.55;;
22441;SDS011;11388;54.456;9.752;2023-12-14T10:50:53;3.65;;;2.17;;
22441;SDS011;11388;54.456;9.752;2023-12-14T10:53:21;4.53;;;2.38;;
22441;SDS011;11388;54.456;9.752;2023-12-14T10:55:47;3.40;;;2.35;;
22441;SDS011;11388;54.456;9.752;2023-12-14T10:58:16;4.00;;;2.35;;
22441;SDS011;11388;54.456;9.752;2023-12-14T11:00:44;4.00;;;2.47;;
22441;SDS011;11388;54.456;9.752;2023-12-14T11:05:52;3.40;;;2.47;;
22441;SDS011;11388;54.456;9.752;2023-12-14T11:08:18;7.40;;;2.65;;
22441;SDS011;11388;54.456;9.752;2023-12-14T11:10:54;3.95;;;2.80;;
22441;SDS011;11388;54.456;9.752;2023-12-14T11:13:35;4.38;;;3.03;;
22441;SDS011;11388;54.456;9.752;2023-12-14T11:16:03;4.15;;;2.65;;
22441;SDS011;11388;54.456;9.752;2023-12-14T11:18:29;3.55;;;2.60;;
22441;SDS011;11388;54.456;9.752;2023-12-14T11:20:56;7.13;;;2.78;;
22441;SDS011;11388;54.456;9.752;2023-12-14T11:25:53;3.92;;;2.70;;
22441;SDS011;11388;54.456;9.752;2023-12-14T11:28:21;3.50;;;2.70;;
22441;SDS011;11388;54.456;9.752;2023-12-14T11:30:54;3.63;;;2.50;;
22441;SDS011;11388;54.456;9.752;2023-12-14T11:33:20;4.75;;;2.70;;
22441;SDS011;11388;54.456;9.752;2023-12-14T11:35:46;4.90;;;2.80;;
22441;SDS011;11388;54.456;9.752;2023-12-14T11:38:12;4.30;;;2.60;;
22441;SDS011;11388;54.456;9.752;2023-12-14T11:40:40;3.05;;;2.30;;
22441;SDS011;11388;54.456;9.752;2023-12-14T11:43:07;4.00;;;2.65;;
22441;SDS011;11388;54.456;9.752;2023-12-14T11:45:33;3.47;;;2.40;;
22441;SDS011;11388;54.456;9.752;2023-12-14T11:48:01;3.42;;;2.30;;
22441;SDS011;11388;54.456;9.752;2023-12-14T11:50:38;4.20;;;2.33;;
22441;SDS011;11388;54.456;9.752;2023-12-14T11:53:04;3.53;;;2.60;;
22441;SDS011;11388;54.456;9.752;2023-12-14T11:55:31;4.18;;;2.40;;
22441;SDS011;11388;54.456;9.752;2023-12-14T11:57:58;3.80;;;2.13;;
22441;SDS011;11388;54.456;9.752;2023-12-14T12:00:25;3.45;;;2.40;;
22441;SDS011;11388;54.456;9.752;2023-12-14T12:02:52;4.65;;;2.17;;
22441;SDS011;11388;54.456;9.752;2023-12-14T12:05:35;4.63;;;2.40;;
22441;SDS011;11388;54.456;9.752;2023-12-14T12:10:51;3.70;;;2.25;;
22441;SDS011;11388;54.456;9.752;2023-12-14T12:13:17;3.53;;;2.42;;
22441;SDS011;11388;54.456;9.752;2023-12-14T12:15:44;3.28;;;2.40;;
22441;SDS011;11388;54.456;9.752;2023-12-14T12:18:12;4.40;;;3.08;;
22441;SDS011;11388;54.456;9.752;2023-12-14T12:20:39;5.13;;;3.00;;
22441;SDS011;11388;54.456;9.752;2023-12-14T12:23:05;4.53;;;3.05;;
22441;SDS011;11388;54.456;9.752;2023-12-14T12:25:32;4.57;;;3.58;;
22441;SDS011;11388;54.456;9.752;2023-12-14T12:27:59;6.55;;;4.10;;
22441;SDS011;11388;54.456;9.752;2023-12-14T12:30:26;4.30;;;3.60;;
22441;SDS011;11388;54.456;9.752;2023-12-14T12:32:52;5.05;;;3.05;;
22441;SDS011;11388;54.456;9.752;2023-12-14T12:38:27;4.18;;;3.10;;
22441;SDS011;11388;54.456;9.752;2023-12-14T12:40:53;3.92;;;2.92;;
22441;SDS011;11388;54.456;9.752;2023-12-14T12:43:23;5.22;;;3.45;;
22441;SDS011;11388;54.456;9.752;2023-12-14T12:45:58;5.32;;;3.70;;
22441;SDS011;11388;54.456;9.752;2023-12-14T12:48:24;6.78;;;4.63;;
22441;SDS011;11388;54.456;9.752;2023-12-14T12:56:45;4.78;;;3.72;;
22441;SDS011;11388;54.456;9.752;2023-12-14T12:59:14;4.03;;;3.05;;
22441;SDS011;11388;54.456;9.752;2023-12-14T13:01:45;4.78;;;3.10;;
22441;SDS011;11388;54.456;9.752;2023-12-14T13:10:25;3.28;;;2.58;;
22441;SDS011;11388;54.456;9.752;2023-12-14T13:13:02;5.47;;;2.60;;
22441;SDS011;11388;54.456;9.752;2023-12-14T13:15:40;4.75;;;2.60;;
22441;SDS011;11388;54.456;9.752;2023-12-14T13:18:16;4.25;;;2.78;;
22441;SDS011;11388;54.456;9.752;2023-12-14T13:20:53;3.90;;;2.75;;
22441;SDS011;11388;54.456;9.752;2023-12-14T13:23:43;4.82;;;3.15;;
22441;SDS011;11388;54.456;9.752;2023-12-14T13:26:13;4.40;;;3.05;;
22441;SDS011;11388;54.456;9.752;2023-12-14T13:31:48;4.22;;;2.80;;
22441;SDS011;11388;54.456;9.752;2023-12-14T13:40:24;3.10;;;2.53;;
22441;SDS011;11388;54.456;9.752;2023-12-14T13:43:29;3.75;;;2.90;;
22441;SDS011;11388;54.456;9.752;2023-12-14T13:46:03;3.60;;;2.70;;
22441;SDS011;11388;54.456;9.752;2023-12-14T13:48:31;4.82;;;2.50;;
22441;SDS011;11388;54.456;9.752;2023-12-14T13:51:00;3.17;;;2.40;;
22441;SDS011;11388;54.456;9.752;2023-12-14T14:04:58;2.83;;;2.10;;
22441;SDS011;11388;54.456;9.752;2023-12-14T14:07:32;3.58;;;2.30;;
22441;SDS011;11388;54.456;9.752;2023-12-14T14:10:05;2.50;;;2.20;;
22441;SDS011;11388;54.456;9.752;2023-12-14T14:12:39;4.63;;;2.40;;
22441;SDS011;11388;54.456;9.752;2023-12-14T14:21:59;3.03;;;2.58;;
22441;SDS011;11388;54.456;9.752;2023-12-14T14:24:37;3.35;;;2.50;;
22441;SDS011;11388;54.456;9.752;2023-12-14T14:29:43;3.80;;;2.80;;
22441;SDS011;11388;54.456;9.752;2023-12-14T14:32:34;3.55;;;2.60;;
22441;SDS011;11388;54.456;9.752;2023-12-14T14:42:00;3.95;;;2.83;;
22441;SDS011;11388;54.456;9.752;2023-12-14T14:44:59;3.03;;;2.60;;
22441;SDS011;11388;54.456;9.752;2023-12-14T14:47:48;2.92;;;2.40;;
22441;SDS011;11388;54.456;9.752;2023-12-14T14:50:17;3.58;;;2.70;;
22441;SDS011;11388;54.456;9.752;2023-12-14T14:53:02;3.88;;;3.00;;
22441;SDS011;11388;54.456;9.752;2023-12-14T14:55:57;3.33;;;2.67;;
22441;SDS011;11388;54.456;9.752;2023-12-14T15:04:41;3.47;;;2.80;;
22441;SDS011;11388;54.456;9.752;2023-12-14T15:10:35;3.50;;;2.42;;
22441;SDS011;11388;54.456;9.752;2023-12-14T15:13:18;3.83;;;2.80;;
22441;SDS011;11388;54.456;9.752;2023-12-14T15:16:02;4.22;;;2.95;;
22441;SDS011;11388;54.456;9.752;2023-12-14T15:18:55;4.80;;;3.20;;
22441;SDS011;11388;54.456;9.752;2023-12-14T15:21:31;5.75;;;3.30;;
22441;SDS011;11388;54.456;9.752;2023-12-14T15:24:04;4.38;;;2.90;;
22441;SDS011;11388;54.456;9.752;2023-12-14T15:27:02;3.83;;;2.80;;
22441;SDS011;11388;54.456;9.752;2023-12-14T15:30:04;3.35;;;2.53;;
22441;SDS011;11388;54.456;9.752;2023-12-14T15:45:05;5.30;;;3.47;;
22441;SDS011;11388;54.456;9.752;2023-12-14T15:48:13;6.60;;;3.40;;
22441;SDS011;11388;54.456;9.752;2023-12-14T15:50:44;6.90;;;4.20;;
22441;SDS011;11388;54.456;9.752;2023-12-14T15:53:24;4.75;;;3.33;;
22441;SDS011;11388;54.456;9.752;2023-12-14T15:55:53;5.15;;;3.45;;
22441;SDS011;11388;54.456;9.752;2023-12-14T15:58:22;5.22;;;3.60;;
22441;SDS011;11388;54.456;9.752;2023-12-14T16:00:59;4.50;;;3.50;;
22441;SDS011;11388;54.456;9.752;2023-12-14T16:11:49;6.80;;;3.83;;
22441;SDS011;11388;54.456;9.752;2023-12-14T16:15:09;4.47;;;3.40;;
22441;SDS011;11388;54.456;9.752;2023-12-14T16:17:43;5.63;;;3.40;;
22441;SDS011;11388;54.456;9.752;2023-12-14T16:20:30;6.45;;;3.47;;
22441;SDS011;11388;54.456;9.752;2023-12-14T16:26:15;6.25;;;4.78;;
22441;SDS011;11388;54.456;9.752;2023-12-14T16:35:06;5.43;;;4.22;;
22441;SDS011;11388;54.456;9.752;2023-12-14T16:40:57;5.22;;;4.10;;
22441;SDS011;11388;54.456;9.752;2023-12-14T16:43:44;7.53;;;4.60;;
22441;SDS011;11388;54.456;9.752;2023-12-14T16:46:10;6.13;;;4.40;;
22441;SDS011;11388;54.456;9.752;2023-12-14T16:48:35;6.15;;;5.30;;
22441;SDS011;11388;54.456;9.752;2023-12-14T16:51:03;5.28;;;4.63;;
22441;SDS011;11388;54.456;9.752;2023-12-14T16:53:29;6.80;;;5.10;;
22441;SDS011;11388;54.456;9.752;2023-12-14T16:55:54;7.68;;;4.95;;
22441;SDS011;11388;54.456;9.752;2023-12-14T16:58:24;6.72;;;5.53;;
22441;SDS011;11388;54.456;9.752;2023-12-14T17:00:50;9.80;;;5.50;;
22441;SDS011;11388;54.456;9.752;2023-12-14T17:03:18;7.88;;;5.40;;
22441;SDS011;11388;54.456;9.752;2023-12-14T17:05:45;5.80;;;5.00;;
22441;SDS011;11388;54.456;9.752;2023-12-14T17:08:11;5.45;;;4.85;;
22441;SDS011;11388;54.456;9.752;2023-12-14T17:10:36;5.68;;;4.60;;
22441;SDS011;11388;54.456;9.752;2023-12-14T17:13:02;7.05;;;4.95;;
22441;SDS011;11388;54.456;9.752;2023-12-14T17:15:28;6.22;;;4.82;;
22441;SDS011;11388;54.456;9.752;2023-12-14T17:17:54;6.32;;;5.55;;
22441;SDS011;11388;54.456;9.752;2023-12-14T17:20:23;9.60;;;7.07;;
22441;SDS011;11388;54.456;9.752;2023-12-14T17:22:49;8.10;;;6.60;;
22441;SDS011;11388;54.456;9.752;2023-12-14T17:25:15;6.25;;;5.40;;
22441;SDS011;11388;54.456;9.752;2023-12-14T17:27:40;6.70;;;5.85;;
22441;SDS011;11388;54.456;9.752;2023-12-14T17:30:06;7.82;;;6.20;;
22441;SDS011;11388;54.456;9.752;2023-12-14T17:32:34;8.30;;;5.25;;
22441;SDS011;11388;54.456;9.752;2023-12-14T17:35:00;6.82;;;5.30;;
22441;SDS011;11388;54.456;9.752;2023-12-14T17:37:25;6.82;;;5.22;;
22441;SDS011;11388;54.456;9.752;2023-12-14T17:39:54;5.25;;;4.55;;
22441;SDS011;11388;54.456;9.752;2023-12-14T17:42:28;9.35;;;5.97;;
22441;SDS011;11388;54.456;9.752;2023-12-14T17:45:05;6.93;;;4.70;;
22441;SDS011;11388;54.456;9.752;2023-12-14T17:47:31;6.25;;;4.80;;
22441;SDS011;11388;54.456;9.752;2023-12-14T17:49:57;6.20;;;5.07;;
22441;SDS011;11388;54.456;9.752;2023-12-14T17:52:28;7.38;;;5.65;;
22441;SDS011;11388;54.456;9.752;2023-12-14T17:54:56;6.13;;;5.07;;
22441;SDS011;11388;54.456;9.752;2023-12-14T17:57:22;6.35;;;5.00;;
22441;SDS011;11388;54.456;9.752;2023-12-14T17:59:50;8.70;;;5.50;;
22441;SDS011;11388;54.456;9.752;2023-12-14T18:02:16;6.80;;;5.25;;
22441;SDS011;11388;54.456;9.752;2023-12-14T18:04:42;8.18;;;5.35;;
22441;SDS011;11388;54.456;9.752;2023-12-14T18:07:21;7.38;;;5.05;;
22441;SDS011;11388;54.456;9.752;2023-12-14T18:09:47;6.38;;;5.10;;
22441;SDS011;11388;54.456;9.752;2023-12-14T18:12:12;7.28;;;5.97;;
22441;SDS011;11388;54.456;9.752;2023-12-14T18:14:38;7.57;;;6.10;;
22441;SDS011;11388;54.456;9.752;2023-12-14T18:17:13;6.80;;;5.72;;
22441;SDS011;11388;54.456;9.752;2023-12-14T18:19:43;7.80;;;5.55;;
22441;SDS011;11388;54.456;9.752;2023-12-14T18:22:15;7.55;;;5.78;;
22441;SDS011;11388;54.456;9.752;2023-12-14T18:24:46;9.27;;;6.97;;
22441;SDS011;11388;54.456;9.752;2023-12-14T18:27:12;9.13;;;7.20;;
22441;SDS011;11388;54.456;9.752;2023-12-14T18:29:38;10.20;;;8.02;;
22441;SDS011;11388;54.456;9.752;2023-12-14T18:32:04;9.68;;;7.75;;
22441;SDS011;11388;54.456;9.752;2023-12-14T18:34:30;11.00;;;8.38;;
22441;SDS011;11388;54.456;9.752;2023-12-14T18:36:56;10.05;;;8.55;;
22441;SDS011;11388;54.456;9.752;2023-12-14T18:39:22;13.15;;;9.70;;
22441;SDS011;11388;54.456;9.752;2023-12-14T18:41:48;12.02;;;9.65;;
22441;SDS011;11388;54.456;9.752;2023-12-14T18:44:15;11.07;;;9.48;;
22441;SDS011;11388;54.456;9.752;2023-12-14T18:46:44;10.55;;;8.95;;
22441;SDS011;11388;54.456;9.752;2023-12-14T18:49:13;9.98;;;7.75;;
22441;SDS011;11388;54.456;9.752;2023-12-14T18:51:39;9.18;;;7.25;;
22441;SDS011;11388;54.456;9.752;2023-12-14T18:54:08;10.30;;;8.05;;
22441;SDS011;11388;54.456;9.752;2023-12-14T18:56:36;10.30;;;8.60;;
22441;SDS011;11388;54.456;9.752;2023-12-14T18:59:02;9.88;;;8.45;;
22441;SDS011;11388;54.456;9.752;2023-12-14T19:01:31;9.07;;;7.30;;
22441;SDS011;11388;54.456;9.752;2023-12-14T19:03:57;8.40;;;6.32;;
22441;SDS011;11388;54.456;9.752;2023-12-14T19:06:31;8.20;;;6.90;;
22441;SDS011;11388;54.456;9.752;2023-12-14T19:11:55;7.78;;;6.70;;
22441;SDS011;11388;54.456;9.752;2023-12-14T19:16:52;7.82;;;6.50;;
22441;SDS011;11388;54.456;9.752;2023-12-14T19:19:23;9.05;;;7.47;;
22441;SDS011;11388;54.456;9.752;2023-12-14T19:21:58;8.18;;;6.70;;
22441;SDS011;11388;54.456;9.752;2023-12-14T19:24:32;8.63;;;6.60;;
22441;SDS011;11388;54.456;9.752;2023-12-14T19:26:58;8.75;;;6.60;;
22441;SDS011;11388;54.456;9.752;2023-12-14T19:29:24;11.25;;;7.13;;
22441;SDS011;11388;54.456;9.752;2023-12-14T19:31:50;9.63;;;7.53;;
22441;SDS011;11388;54.456;9.752;2023-12-14T19:34:23;10.27;;;8.32;;
22441;SDS011;11388;54.456;9.752;2023-12-14T19:36:51;9.70;;;7.90;;
22441;SDS011;11388;54.456;9.752;2023-12-14T19:39:19;10.40;;;8.45;;
22441;SDS011;11388;54.456;9.752;2023-12-14T19:41:52;10.32;;;8.23;;
22441;SDS011;11388;54.456;9.752;2023-12-14T19:46:52;10.57;;;8.57;;
22441;SDS011;11388;54.456;9.752;2023-12-14T19:49:18;11.50;;;9.10;;
22441;SDS011;11388;54.456;9.752;2023-12-14T19:51:44;11.45;;;8.60;;
22441;SDS011;11388;54.456;9.752;2023-12-14T19:54:12;11.65;;;9.48;;
22441;SDS011;11388;54.456;9.752;2023-12-14T19:56:44;13.20;;;9.95;;
22441;SDS011;11388;54.456;9.752;2023-12-14T19:59:11;12.05;;;8.73;;
22441;SDS011;11388;54.456;9.752;2023-12-14T20:04:10;10.43;;;8.55;;
22441;SDS011;11388;54.456;9.752;2023-12-14T20:06:36;9.50;;;7.60;;
22441;SDS011;11388;54.456;9.752;2023-12-14T20:09:01;9.95;;;8.00;;
22441;SDS011;11388;54.456;9.752;2023-12-14T20:11:28;11.52;;;8.32;;
22441;SDS011;11388;54.456;9.752;2023-12-14T20:13:59;10.13;;;7.90;;
22441;SDS011;11388;54.456;9.752;2023-12-14T20:16:31;10.48;;;8.00;;
22441;SDS011;11388;54.456;9.752;2023-12-14T20:18:57;9.82;;;7.78;;
22441;SDS011;11388;54.456;9.752;2023-12-14T20:21:22;10.55;;;7.90;;
22441;SDS011;11388;54.456;9.752;2023-12-14T20:23:48;10.65;;;7.70;;
22441;SDS011;11388;54.456;9.752;2023-12-14T20:26:20;10.02;;;7.90;;
22441;SDS011;11388;54.456;9.752;2023-12-14T20:28:47;9.57;;;7.72;;
22441;SDS011;11388;54.456;9.752;2023-12-14T20:31:12;9.73;;;7.78;;
22441;SDS011;11388;54.456;9.752;2023-12-14T20:33:41;9.00;;;7.10;;
22441;SDS011;11388;54.456;9.752;2023-12-14T20:36:08;10.27;;;7.15;;
22441;SDS011;11388;54.456;9.752;2023-12-14T20:38:38;9.10;;;6.80;;
22441;SDS011;11388;54.456;9.752;2023-12-14T20:41:04;9.63;;;6.97;;
22441;SDS011;11388;54.456;9.752;2023-12-14T20:43:30;8.55;;;6.40;;
22441;SDS011;11388;54.456;9.752;2023-12-14T20:46:02;7.70;;;6.55;;
22441;SDS011;11388;54.456;9.752;2023-12-14T20:48:30;10.85;;;7.30;;
22441;SDS011;11388;54.456;9.752;2023-12-14T20:51:08;11.20;;;9.88;;
22441;SDS011;11388;54.456;9.752;2023-12-14T20:53:39;14.68;;;11.75;;
22441;SDS011;11388;54.456;9.752;2023-12-14T20:56:05;23.77;;;16.98;;
22441;SDS011;11388;54.456;9.752;2023-12-14T20:58:30;14.38;;;9.68;;
22441;SDS011;11388;54.456;9.752;2023-12-14T21:00:56;9.80;;;8.35;;
22441;SDS011;11388;54.456;9.752;2023-12-14T21:03:22;9.98;;;8.02;;
22441;SDS011;11388;54.456;9.752;2023-12-14T21:05:48;9.98;;;7.70;;
22441;SDS011;11388;54.456;9.752;2023-12-14T21:08:16;9.27;;;7.78;;
22441;SDS011;11388;54.456;9.752;2023-12-14T21:10:42;9.70;;;6.78;;
22441;SDS011;11388;54.456;9.752;2023-12-14T21:13:08;9.13;;;7.40;;
22441;SDS011;11388;54.456;9.752;2023-12-14T21:15:35;9.00;;;7.13;;
22441;SDS011;11388;54.456;9.752;2023-12-14T21:18:01;8.75;;;7.13;;
22441;SDS011;11388;54.456;9.752;2023-12-14T21:20:27;9.05;;;7.47;;
22441;SDS011;11388;54.456;9.752;2023-12-14T21:22:54;10.35;;;7.35;;
22441;SDS011;11388;54.456;9.752;2023-12-14T21:25:20;9.48;;;7.05;;
22441;SDS011;11388;54.456;9.752;2023-12-14T21:27:52;9.40;;;7.28;;
22441;SDS011;11388;54.456;9.752;2023-12-14T21:30:21;9.13;;;7.50;;
22441;SDS011;11388;54.456;9.752;2023-12-14T21:32:47;9.60;;;6.85;;
22441;SDS011;11388;54.456;9.752;2023-12-14T21:35:14;9.02;;;6.68;;
22441;SDS011;11388;54.456;9.752;2023-12-14T21:37:40;7.38;;;6.53;;
22441;SDS011;11388;54.456;9.752;2023-12-14T21:40:10;9.18;;;6.82;;
22441;SDS011;11388;54.456;9.752;2023-12-14T21:42:36;8.63;;;7.18;;
22441;SDS011;11388;54.456;9.752;2023-12-14T21:45:03;7.22;;;6.28;;
22441;SDS011;11388;54.456;9.752;2023-12-14T21:47:29;8.50;;;7.05;;
22441;SDS011;11388;54.456;9.752;2023-12-14T21:49:55;8.45;;;6.85;;
22441;SDS011;11388;54.456;9.752;2023-12-14T21:52:21;11.27;;;7.03;;
22441;SDS011;11388;54.456;9.752;2023-12-14T21:54:47;8.25;;;6.80;;
22441;SDS011;11388;54.456;9.752;2023-12-14T21:57:13;9.60;;;7.38;;
22441;SDS011;11388;54.456;9.752;2023-12-14T21:59:39;11.18;;;8.10;;
22441;SDS011;11388;54.456;9.752;2023-12-14T22:02:05;10.18;;;7.20;;
22441;SDS011;11388;54.456;9.752;2023-12-14T22:04:30;10.48;;;7.53;;
22441;SDS011;11388;54.456;9.752;2023-12-14T22:06:56;10.57;;;7.68;;
22441;SDS011;11388;54.456;9.752;2023-12-14T22:09:22;9.35;;;7.15;;
22441;SDS011;11388;54.456;9.752;2023-12-14T22:11:48;10.43;;;7.50;;
22441;SDS011;11388;54.456;9.752;2023-12-14T22:14:14;10.45;;;7.30;;
22441;SDS011;11388;54.456;9.752;2023-12-14T22:16:40;9.45;;;7.30;;
22441;SDS011;11388;54.456;9.752;2023-12-14T22:19:06;11.60;;;8.18;;
22441;SDS011;11388;54.456;9.752;2023-12-14T22:21:31;9.70;;;7.55;;
22441;SDS011;11388;54.456;9.752;2023-12-14T22:23:59;10.98;;;8.02;;
22441;SDS011;11388;54.456;9.752;2023-12-14T22:26:25;10.88;;;7.88;;
22441;SDS011;11388;54.456;9.752;2023-12-14T22:28:51;10.68;;;8.00;;
22441;SDS011;11388;54.456;9.752;2023-12-14T22:31:17;11.35;;;7.47;;
22441;SDS011;11388;54.456;9.752;2023-12-14T22:33:43;11.98;;;8.23;;
22441;SDS011;11388;54.456;9.752;2023-12-14T22:36:09;12.48;;;9.13;;
22441;SDS011;11388;54.456;9.752;2023-12-14T22:38:35;12.40;;;8.88;;
22441;SDS011;11388;54.456;9.752;2023-12-14T22:41:01;11.50;;;8.90;;
22441;SDS011;11388;54.456;9.752;2023-12-14T22:43:26;11.93;;;7.95;;
22441;SDS011;11388;54.456;9.752;2023-12-14T22:45:52;10.57;;;8.50;;
22441;SDS011;11388;54.456;9.752;2023-12-14T22:48:18;12.38;;;8.50;;
22441;SDS011;11388;54.456;9.752;2023-12-14T22:50:43;15.02;;;8.52;;
22441;SDS011;11388;54.456;9.752;2023-12-14T22:53:09;10.88;;;8.55;;
22441;SDS011;11388;54.456;9.752;2023-12-14T22:55:35;11.77;;;8.43;;
22441;SDS011;11388;54.456;9.752;2023-12-14T22:58:00;11.25;;;8.45;;
22441;SDS011;11388;54.456;9.752;2023-12-14T23:00:26;11.00;;;8.05;;
22441;SDS011;11388;54.456;9.752;2023-12-14T23:02:55;13.68;;;8.35;;
22441;SDS011;11388;54.456;9.752;2023-12-14T23:05:21;12.85;;;7.90;;
22441;SDS011;11388;54.456;9.752;2023-12-14T23:07:47;13.02;;;8.50;;
22441;SDS011;11388;54.456;9.752;2023-12-14T23:10:13;10.48;;;8.18;;
22441;SDS011;11388;54.456;9.752;2023-12-14T23:12:39;12.13;;;8.45;;
22441;SDS011;11388;54.456;9.752;2023-12-14T23:15:05;11.20;;;7.97;;
22441;SDS011;11388;54.456;9.752;2023-12-14T23:17:32;11.73;;;8.85;;
22441;SDS011;11388;54.456;9.752;2023-12-14T23:19:57;11.20;;;8.57;;
22441;SDS011;11388;54.456;9.752;2023-12-14T23:22:27;11.18;;;8.43;;
22441;SDS011;11388;54.456;9.752;2023-12-14T23:24:52;11.07;;;8.32;;
22441;SDS011;11388;54.456;9.752;2023-12-14T23:27:19;11.68;;;8.30;;
22441;SDS011;11388;54.456;9.752;2023-12-14T23:29:44;14.68;;;8.57;;
22441;SDS011;11388;54.456;9.752;2023-12-14T23:32:10;11.63;;;8.48;;
22441;SDS011;11388;54.456;9.752;2023-12-14T23:34:36;12.10;;;9.13;;
22441;SDS011;11388;54.456;9.752;2023-12-14T23:37:02;12.30;;;8.40;;
22441;SDS011;11388;54.456;9.752;2023-12-14T23:39:28;12.73;;;8.80;;
22441;SDS011;11388;54.456;9.752;2023-12-14T23:42:01;12.02;;;8.80;;
22441;SDS011;11388;54.456;9.752;2023-12-14T23:48:12;12.35;;;8.88;;
22441;SDS011;11388;54.456;9.752;2023-12-14T23:50:40;15.00;;;9.75;;
22441;SDS011;11388;54.456;9.752;2023-12-14T23:53:09;12.55;;;9.15;;
22441;SDS011;11388;54.456;9.752;2023-12-14T23:55:38;13.38;;;9.18;;
22441;SDS011;11388;54.456;9.752;2023-12-14T23:58:06;12.82;;;9.55;;
